Erenhot, China
Current Conditions -  °F | °C
As of 2:00 PM on Saturday 29 Nov 2014 (Local Time) from ZBHH Reporting Station
Haze Haze  
Wind Chill: 41°   Ceiling: Unl
Heat Index: 41°   Visibility: 3mi
Dew Point: 25°   Wind: 2mph
Humidity: 53%   Direction: 250°WSW
Pressure: 29.94"   Gusts: NA
Location:  43.66°N, 111.96°E
Report Text: ZBHH 290600Z 25001MPS 5000 HZ NSC 05/M04 Q1014 NOSIG
Loading
Personal Weather Stations






























Interactive Weather Map New forecast layout! Learn more

10-Day Weather Forecast

Advertisements
Track Severe Weather on mobile